Time;durP1;ratioP1;P1;durP2;ratioP2;P2;SDS_P1;SDS_P2;PMS_P1;PMS_P2;Temp;Humidity;BMP_temperature;BMP_pressure;BME280_temperature;BME280_humidity;BME280_pressure;Samples;Min_cycle;Max_cycle;Signal;HPM_P1;HPM_P2
2022/07/20 00:00:26;;;;;;;2.25;1.45;;;27.00;71.90;;;;;;5048359;28;20049;-57
2022/07/20 00:02:54;;;;;;;1.38;1.27;;;27.10;71.90;;;;;;5055934;28;20052;-54
2022/07/20 00:05:21;;;;;;;0.68;0.68;;;27.00;72.30;;;;;;5049089;28;20036;-56
2022/07/20 00:07:48;;;;;;;;;;;27.00;72.40;;;;;;5047644;28;20045;-50
2022/07/20 00:13:02;;;;;;;0.70;0.70;;;26.90;72.40;;;;;;5056917;28;20049;-57
2022/07/20 00:15:29;;;;;;;1.95;1.30;;;26.80;72.40;;;;;;5049560;28;20047;-55
2022/07/20 00:17:57;;;;;;;16.65;2.60;;;26.80;72.70;;;;;;5046511;28;20041;-54
2022/07/20 00:20:46;;;;;;;;;;;26.80;72.90;;;;;;5061117;28;20135;-52
2022/07/20 00:23:13;;;;;;;1.35;1.25;;;26.90;74.40;;;;;;5048326;28;19928;-54
2022/07/20 00:25:40;;;;;;;2.50;0.93;;;27.30;73.90;;;;;;5054821;28;20044;-56
2022/07/20 00:28:08;;;;;;;1.10;1.05;;;27.50;73.30;;;;;;5046389;28;20396;-57
2022/07/20 00:30:35;;;;;;;0.80;0.80;;;27.70;73.10;;;;;;5051229;28;20060;-56
2022/07/20 00:45:05;;;;;;;3.28;2.30;;;28.10;73.60;;;;;;4252780;28;20051;-53
2022/07/20 00:47:32;;;;;;;5.85;1.98;;;28.10;73.70;;;;;;5056879;28;20044;-57
2022/07/20 00:50:00;;;;;;;2.70;1.70;;;28.20;73.80;;;;;;5055724;28;20045;-54
2022/07/20 00:52:27;;;;;;;0.70;0.70;;;28.10;74.40;;;;;;5055035;28;20049;-56
2022/07/20 00:54:54;;;;;;;1.55;1.45;;;28.20;73.90;;;;;;5055706;28;20416;-54
2022/07/20 00:57:22;;;;;;;3.30;1.75;;;28.20;74.00;;;;;;5061813;28;20064;-55
2022/07/20 00:59:49;;;;;;;4.68;1.95;;;28.20;74.20;;;;;;5049491;28;20563;-54
2022/07/20 01:02:16;;;;;;;2.15;1.33;;;28.20;74.20;;;;;;5050476;28;20405;-56
2022/07/20 01:04:44;;;;;;;2.28;1.30;;;28.20;74.30;;;;;;5055021;28;20439;-55
2022/07/20 01:07:11;;;;;;;2.88;1.58;;;28.20;74.40;;;;;;5054855;28;20044;-57
2022/07/20 01:09:39;;;;;;;4.00;3.05;;;28.20;74.50;;;;;;5047909;28;20044;-55
2022/07/20 01:12:09;;;;;;;2.53;1.42;;;28.20;74.50;;;;;;5051909;28;20255;-54
2022/07/20 01:14:37;;;;;;;4.00;1.80;;;28.20;74.60;;;;;;5060981;28;20516;-57
2022/07/20 01:17:04;;;;;;;1.98;1.20;;;28.30;74.70;;;;;;5050106;28;20051;-53
2022/07/20 01:19:31;;;;;;;1.42;1.33;;;28.20;74.80;;;;;;5064796;28;20049;-56
2022/07/20 01:21:59;;;;;;;0.93;0.90;;;28.30;74.90;;;;;;5040337;28;20045;-57
2022/07/20 01:24:27;;;;;;;1.95;1.10;;;28.30;74.90;;;;;;5050884;28;20524;-58
2022/07/20 01:26:54;;;;;;;5.82;1.65;;;28.20;74.80;;;;;;5037192;28;20063;-56
2022/07/20 01:29:21;;;;;;;4.55;2.10;;;28.20;74.60;;;;;;5061108;28;20052;-54
2022/07/20 01:31:48;;;;;;;1.55;1.15;;;28.20;74.60;;;;;;5062061;28;20542;-54
2022/07/20 01:34:16;;;;;;;1.77;0.75;;;28.30;74.60;;;;;;5069050;28;20063;-50
2022/07/20 01:36:43;;;;;;;1.08;1.08;;;28.30;74.70;;;;;;5069235;28;20519;-55
2022/07/20 01:39:10;;;;;;;1.98;1.55;;;28.30;74.30;;;;;;5069850;28;20044;-54
2022/07/20 01:41:38;;;;;;;3.20;1.85;;;28.30;74.30;;;;;;5069735;28;20063;-56
2022/07/20 01:44:06;;;;;;;1.33;1.13;;;28.20;74.20;;;;;;5052252;28;20052;-55
2022/07/20 01:50:51;;;;;;;0.50;0.50;;;28.30;74.40;;;;;;5088350;28;20039;-52
2022/07/20 01:53:19;;;;;;;4.35;3.05;;;28.30;74.30;;;;;;5061511;28;20045;-55
2022/07/20 01:55:46;;;;;;;1.30;1.15;;;28.30;74.30;;;;;;5067088;28;20423;-55
2022/07/20 01:58:13;;;;;;;0.63;0.63;;;28.20;75.10;;;;;;5054494;28;20056;-57
2022/07/20 02:00:41;;;;;;;2.53;1.33;;;28.30;74.60;;;;;;5048270;28;20045;-55
2022/07/20 02:03:09;;;;;;;3.60;2.28;;;28.20;74.40;;;;;;5064616;28;20049;-58
2022/07/20 02:05:36;;;;;;;0.88;0.88;;;28.30;74.50;;;;;;5057287;28;20052;-58
2022/07/20 02:08:04;;;;;;;0.75;0.75;;;28.30;74.60;;;;;;5056555;28;20045;-58
2022/07/20 02:10:31;;;;;;;4.07;1.20;;;28.30;74.70;;;;;;5049307;28;20416;-56
2022/07/20 02:12:59;;;;;;;;;;;28.30;74.50;;;;;;5049314;28;20047;-54
2022/07/20 02:18:13;;;;;;;1.98;1.40;;;28.20;74.60;;;;;;5066758;28;20049;-57
2022/07/20 02:20:41;;;;;;;1.35;0.98;;;28.20;74.80;;;;;;5059408;28;20059;-57
2022/07/20 02:23:10;;;;;;;0.50;0.50;;;28.20;74.60;;;;;;5057203;28;20056;-56
2022/07/20 02:25:38;;;;;;;1.70;1.25;;;28.20;74.80;;;;;;5048079;28;20048;-59
2022/07/20 02:28:06;;;;;;;4.68;0.93;;;28.20;75.50;;;;;;5055359;28;20036;-55
2022/07/20 02:30:34;;;;;;;0.88;0.88;;;28.20;74.70;;;;;;5049215;28;20057;-59
2022/07/20 02:33:02;;;;;;;0.63;0.63;;;28.20;74.60;;;;;;5058778;28;20108;-61
2022/07/20 02:35:29;;;;;;;;;;;28.20;74.40;;;;;;5073677;28;20507;-57
2022/07/20 02:37:58;;;;;;;2.65;1.42;;;28.20;74.20;;;;;;5063451;28;19924;-56
2022/07/20 02:40:26;;;;;;;8.50;3.65;;;28.20;74.30;;;;;;5057617;28;20049;-56
2022/07/20 02:42:53;;;;;;;0.95;0.88;;;28.20;74.30;;;;;;5060811;28;20047;-59
2022/07/20 02:45:21;;;;;;;2.50;1.35;;;28.20;74.10;;;;;;5065258;28;20044;-56
2022/07/20 02:47:49;;;;;;;1.23;1.10;;;28.20;74.30;;;;;;5055950;28;20048;-57
2022/07/20 02:50:16;;;;;;;;;;;28.20;73.90;;;;;;5058917;28;20048;-57
2022/07/20 02:52:44;;;;;;;0.50;0.50;;;28.20;73.70;;;;;;5067592;28;19971;-54
2022/07/20 02:55:12;;;;;;;1.15;1.05;;;28.20;73.60;;;;;;5068092;28;20060;-54
2022/07/20 02:57:40;;;;;;;3.10;1.65;;;28.20;73.60;;;;;;5076503;28;20051;-55
2022/07/20 03:00:09;;;;;;;2.70;1.50;;;28.20;73.40;;;;;;5067524;28;20040;-60
2022/07/20 03:02:37;;;;;;;2.38;1.48;;;28.10;73.40;;;;;;5047399;28;20056;-57
2022/07/20 03:05:05;;;;;;;5.70;1.38;;;28.10;73.40;;;;;;5069133;28;20044;-59
2022/07/20 03:07:32;;;;;;;0.77;0.75;;;28.10;73.50;;;;;;5059308;28;20059;-59
2022/07/20 03:10:00;;;;;;;1.90;1.08;;;28.10;73.20;;;;;;5064030;28;20051;-57
2022/07/20 03:12:27;;;;;;;;;;;28.10;73.30;;;;;;5055777;28;20057;-56
2022/07/20 03:14:55;;;;;;;0.68;0.68;;;28.10;73.20;;;;;;5071524;28;19928;-57
2022/07/20 03:17:22;;;;;;;1.35;1.00;;;28.10;73.40;;;;;;5057021;28;20500;-58
2022/07/20 03:19:50;;;;;;;2.45;1.20;;;28.10;73.40;;;;;;5065304;28;20385;-56
2022/07/20 03:22:17;;;;;;;1.83;0.80;;;28.10;73.30;;;;;;5062757;28;20045;-57
2022/07/20 03:24:44;;;;;;;0.70;0.70;;;28.10;73.20;;;;;;5066696;28;20059;-55
2022/07/20 03:27:12;;;;;;;0.50;0.50;;;28.10;73.10;;;;;;5071074;28;20047;-57
2022/07/20 03:29:40;;;;;;;0.88;0.57;;;28.10;73.00;;;;;;5074300;28;20048;-56
2022/07/20 03:32:07;;;;;;;;;;;28.10;73.00;;;;;;5044021;28;20048;-57
2022/07/20 03:34:34;;;;;;;;;;;28.10;73.10;;;;;;5070516;28;19928;-55
2022/07/20 03:37:01;;;;;;;0.98;0.95;;;28.10;73.00;;;;;;5066663;28;19947;-57
2022/07/20 03:39:29;;;;;;;1.48;0.88;;;28.10;73.00;;;;;;5076152;28;20438;-55
2022/07/20 03:41:56;;;;;;;5.82;3.80;;;28.10;73.10;;;;;;5019723;28;20047;-56
2022/07/20 03:44:23;;;;;;;1.50;1.05;;;28.10;72.80;;;;;;4964690;28;20047;-57
2022/07/20 03:46:50;;;;;;;1.67;0.98;;;28.10;72.80;;;;;;4991873;28;20063;-55
2022/07/20 03:49:18;;;;;;;2.53;1.60;;;28.10;72.80;;;;;;5016154;28;20055;-59
2022/07/20 03:51:46;;;;;;;1.27;0.88;;;28.10;72.60;;;;;;4991927;28;20052;-59
2022/07/20 03:54:13;;;;;;;2.30;1.63;;;28.10;72.60;;;;;;4967705;28;20216;-58
2022/07/20 03:56:40;;;;;;;1.05;1.00;;;28.10;72.50;;;;;;4982754;28;20051;-55
2022/07/20 03:59:09;;;;;;;0.45;0.45;;;28.10;73.00;;;;;;5039895;28;20040;-56
2022/07/20 04:01:37;;;;;;;3.78;1.95;;;28.10;72.20;;;;;;4996532;28;20072;-59
2022/07/20 04:04:05;;;;;;;2.65;1.60;;;28.10;72.60;;;;;;4982454;28;20050;-57
2022/07/20 04:06:32;;;;;;;;;;;28.10;72.40;;;;;;4980072;28;20048;-57
2022/07/20 04:08:59;;;;;;;;;;;28.10;72.40;;;;;;4958652;28;19926;-54
2022/07/20 04:11:27;;;;;;;;;;;28.10;72.50;;;;;;4965089;28;19933;-58
2022/07/20 04:13:54;;;;;;;2.33;1.65;;;28.00;72.40;;;;;;5020322;28;19930;-57
2022/07/20 04:16:22;;;;;;;3.17;1.73;;;28.10;72.30;;;;;;4978343;28;20604;-56
2022/07/20 04:18:50;;;;;;;;;;;28.10;72.30;;;;;;4952804;28;20495;-54
2022/07/20 04:21:18;;;;;;;2.10;1.40;;;28.10;72.40;;;;;;4954744;28;19926;-55
2022/07/20 04:23:45;;;;;;;4.18;2.22;;;28.10;72.50;;;;;;4972495;28;20050;-60
2022/07/20 04:26:12;;;;;;;0.75;0.75;;;28.00;72.40;;;;;;5027917;28;20054;-58
2022/07/20 04:28:39;;;;;;;1.27;1.08;;;28.10;72.30;;;;;;5032006;28;20056;-58
2022/07/20 04:31:07;;;;;;;1.45;0.98;;;28.10;72.90;;;;;;4961972;28;20062;-56
2022/07/20 04:33:34;;;;;;;0.68;0.68;;;28.10;72.10;;;;;;4979915;28;20529;-55
2022/07/20 04:36:02;;;;;;;0.43;0.43;;;28.10;72.30;;;;;;4982671;28;20807;-59
2022/07/20 04:38:29;;;;;;;;;;;28.10;72.60;;;;;;4981477;28;20044;-59
2022/07/20 04:40:56;;;;;;;4.05;1.95;;;28.10;72.70;;;;;;4991506;28;20296;-56
2022/07/20 04:43:24;;;;;;;1.83;1.33;;;28.10;72.50;;;;;;4965165;28;20047;-56
2022/07/20 04:45:51;;;;;;;0.77;0.77;;;28.10;72.70;;;;;;4989534;28;20043;-52
2022/07/20 04:48:24;;;;;;;1.45;0.98;;;28.10;72.60;;;;;;4989361;28;20059;-57
2022/07/20 04:50:51;;;;;;;2.45;1.23;;;28.10;72.70;;;;;;5038862;28;20053;-54
2022/07/20 04:53:19;;;;;;;2.90;1.98;;;28.10;72.80;;;;;;4961244;28;20399;-56
2022/07/20 04:55:46;;;;;;;3.28;1.88;;;28.10;72.70;;;;;;5022980;28;20054;-56
2022/07/20 04:58:13;;;;;;;1.05;0.95;;;28.10;72.70;;;;;;4962998;28;20048;-57
2022/07/20 05:00:41;;;;;;;;;;;28.10;72.50;;;;;;5002377;28;20039;-57
2022/07/20 05:03:08;;;;;;;0.80;0.80;;;28.20;72.80;;;;;;5003491;28;19931;-59
2022/07/20 05:05:35;;;;;;;2.45;1.27;;;28.20;72.90;;;;;;5035585;28;20041;-56
2022/07/20 05:08:02;;;;;;;2.40;1.65;;;28.20;72.90;;;;;;4962407;28;20408;-54
2022/07/20 05:10:30;;;;;;;0.80;0.80;;;28.20;72.90;;;;;;5007199;28;20428;-54
2022/07/20 05:12:57;;;;;;;0.95;0.95;;;28.20;72.90;;;;;;4997996;28;20052;-57
2022/07/20 05:15:25;;;;;;;1.98;0.85;;;28.20;72.90;;;;;;4970483;28;20376;-59
2022/07/20 05:17:53;;;;;;;2.60;1.92;;;28.20;73.40;;;;;;4957580;28;20047;-57
2022/07/20 05:20:20;;;;;;;2.63;1.20;;;28.20;73.40;;;;;;5020729;28;20039;-57
2022/07/20 05:22:48;;;;;;;3.47;2.22;;;28.20;73.50;;;;;;5005981;28;20612;-54
2022/07/20 05:25:15;;;;;;;;;;;28.30;73.60;;;;;;4975049;28;20047;-57
2022/07/20 05:27:42;;;;;;;0.40;0.40;;;28.30;73.70;;;;;;4970280;28;19926;-57
2022/07/20 05:30:10;;;;;;;3.97;1.52;;;28.20;73.70;;;;;;4959548;28;20055;-55
2022/07/20 05:32:38;;;;;;;0.50;0.50;;;28.20;73.60;;;;;;4965036;28;20054;-54
2022/07/20 05:35:06;;;;;;;;;;;28.20;73.60;;;;;;4966304;28;20047;-57
2022/07/20 05:37:33;;;;;;;1.95;1.35;;;28.30;74.20;;;;;;4974669;28;19926;-59
2022/07/20 05:40:01;;;;;;;1.95;1.40;;;28.20;74.00;;;;;;5034395;28;20128;-57
2022/07/20 05:42:28;;;;;;;1.25;1.02;;;28.20;74.00;;;;;;4980547;28;20048;-55
2022/07/20 05:44:55;;;;;;;2.70;1.83;;;28.20;73.80;;;;;;4993875;28;20039;-58
2022/07/20 05:47:23;;;;;;;0.57;0.57;;;28.20;73.80;;;;;;4963117;28;20047;-56
2022/07/20 05:49:50;;;;;;;15.25;1.45;;;28.20;73.80;;;;;;4993686;28;20044;-54
2022/07/20 05:52:18;;;;;;;1.65;1.25;;;28.20;74.00;;;;;;4980833;28;20434;-55
2022/07/20 05:54:45;;;;;;;3.20;1.10;;;28.20;74.00;;;;;;4976544;28;20046;-54
2022/07/20 05:57:12;;;;;;;0.50;0.50;;;28.30;74.40;;;;;;5004390;28;20048;-53
2022/07/20 05:59:40;;;;;;;;;;;28.20;74.30;;;;;;4966194;28;20054;-53
2022/07/20 06:02:08;;;;;;;3.40;1.95;;;28.20;74.70;;;;;;5031159;28;19933;-53
2022/07/20 06:04:37;;;;;;;2.75;1.40;;;28.30;75.20;;;;;;5039697;28;20053;-54
2022/07/20 06:07:05;;;;;;;2.55;1.20;;;28.30;75.10;;;;;;5006670;28;20035;-50
2022/07/20 06:09:32;;;;;;;;;;;28.30;74.90;;;;;;5047247;28;20047;-54
2022/07/20 06:11:59;;;;;;;;;;;28.30;74.90;;;;;;4990855;28;19925;-54
2022/07/20 06:14:27;;;;;;;1.17;1.00;;;28.40;75.00;;;;;;4963767;28;19930;-55
2022/07/20 06:16:54;;;;;;;1.95;1.20;;;28.40;75.10;;;;;;5004828;28;20047;-52
2022/07/20 06:19:22;;;;;;;3.08;1.40;;;28.50;75.20;;;;;;4962475;28;20042;-56
2022/07/20 06:21:49;;;;;;;1.35;1.15;;;28.50;75.20;;;;;;5005998;28;20051;-55
2022/07/20 06:24:17;;;;;;;4.00;2.45;;;28.50;75.30;;;;;;4967762;28;20334;-59
2022/07/20 06:26:46;;;;;;;0.55;0.55;;;28.50;75.50;;;;;;5030979;28;20082;-53
2022/07/20 06:29:14;;;;;;;0.80;0.80;;;28.50;75.50;;;;;;4978718;28;20054;-55
2022/07/20 06:31:42;;;;;;;3.35;1.20;;;28.50;75.90;;;;;;4962722;28;20061;-55
2022/07/20 06:34:29;;;;;;;0.60;0.60;;;28.40;75.80;;;;;;5009886;28;20053;-58
2022/07/20 06:36:57;;;;;;;0.77;0.77;;;28.40;75.70;;;;;;4974281;28;20369;-54
2022/07/20 06:39:24;;;;;;;0.70;0.70;;;28.40;75.20;;;;;;5029219;28;20153;-57
2022/07/20 06:41:51;;;;;;;0.80;0.80;;;28.40;75.00;;;;;;5005124;28;20061;-53
2022/07/20 06:44:18;;;;;;;0.65;0.65;;;28.40;75.10;;;;;;4962594;28;20058;-55
2022/07/20 06:46:46;;;;;;;0.30;0.30;;;28.40;75.10;;;;;;4989541;28;20058;-57
2022/07/20 06:49:14;;;;;;;1.92;1.33;;;28.40;75.20;;;;;;4988212;28;20066;-57
2022/07/20 06:51:42;;;;;;;1.02;0.88;;;28.40;75.70;;;;;;4974943;28;20055;-57
2022/07/20 06:54:10;;;;;;;2.47;1.70;;;28.40;76.40;;;;;;5029567;28;20055;-55
2022/07/20 06:56:40;;;;;;;2.83;1.63;;;28.40;76.20;;;;;;4968710;28;20047;-56
2022/07/20 06:59:08;;;;;;;7.82;3.10;;;28.40;76.40;;;;;;5029522;28;20059;-53
2022/07/20 07:01:35;;;;;;;0.43;0.43;;;28.40;76.40;;;;;;5010979;28;20051;-54
2022/07/20 07:04:03;;;;;;;;;;;28.40;76.40;;;;;;4998815;28;20044;-58
2022/07/20 07:06:32;;;;;;;1.35;0.95;;;28.40;76.40;;;;;;4993097;28;19924;-53
2022/07/20 07:09:00;;;;;;;0.80;0.80;;;28.40;76.40;;;;;;5023764;28;20059;-56
2022/07/20 07:11:27;;;;;;;2.10;1.58;;;28.40;76.30;;;;;;4962571;28;20055;-56
2022/07/20 07:13:55;;;;;;;3.05;2.00;;;28.40;76.30;;;;;;4996620;28;20058;-55
2022/07/20 07:16:24;;;;;;;2.80;1.33;;;28.40;76.30;;;;;;4991718;28;20065;-60
2022/07/20 07:18:52;;;;;;;1.88;1.38;;;28.40;76.30;;;;;;4992607;28;20473;-57
2022/07/20 07:21:20;;;;;;;3.38;1.35;;;28.40;76.40;;;;;;4979951;28;20035;-53
2022/07/20 07:23:50;;;;;;;0.45;0.45;;;28.30;76.40;;;;;;4983511;28;20077;-53
2022/07/20 07:26:20;;;;;;;0.98;0.95;;;28.40;76.50;;;;;;4959623;28;20061;-53
2022/07/20 07:28:48;;;;;;;1.20;0.77;;;28.40;76.50;;;;;;4982591;28;20051;-59
2022/07/20 07:31:17;;;;;;;2.55;0.85;;;28.40;76.60;;;;;;5036211;28;20048;-53
2022/07/20 07:33:45;;;;;;;0.40;0.40;;;28.40;76.60;;;;;;5042882;28;20081;-54
2022/07/20 07:36:13;;;;;;;2.25;1.45;;;28.40;76.60;;;;;;4988328;28;20046;-55
2022/07/20 07:38:41;;;;;;;0.90;0.90;;;28.40;76.60;;;;;;4971710;28;20042;-58
2022/07/20 07:41:09;;;;;;;0.70;0.70;;;28.50;76.80;;;;;;4961975;28;20047;-52
2022/07/20 07:43:36;;;;;;;;;;;28.40;76.80;;;;;;4963440;28;20079;-52
2022/07/20 07:46:04;;;;;;;0.88;0.55;;;28.40;76.80;;;;;;4965226;28;19933;-51
2022/07/20 07:48:32;;;;;;;0.68;0.68;;;28.40;76.80;;;;;;4977663;28;20048;-55
2022/07/20 07:51:00;;;;;;;0.88;0.82;;;28.50;76.90;;;;;;4999398;28;20067;-50
2022/07/20 07:53:27;;;;;;;;;;;28.40;76.90;;;;;;4972174;28;20517;-54
2022/07/20 07:55:54;;;;;;;0.80;0.80;;;28.50;77.00;;;;;;4965021;28;20262;-55
2022/07/20 07:58:22;;;;;;;0.50;0.50;;;28.50;77.10;;;;;;5008926;28;20063;-56
2022/07/20 08:00:49;;;;;;;0.82;0.75;;;28.50;77.10;;;;;;4962050;28;20426;-53
2022/07/20 08:03:17;;;;;;;;;;;28.50;77.20;;;;;;5029031;28;20043;-59
2022/07/20 08:05:44;;;;;;;;;;;28.50;77.30;;;;;;5006037;28;19926;-57
2022/07/20 08:08:14;;;;;;;0.85;0.82;;;28.60;77.50;;;;;;5028027;28;20262;-58
2022/07/20 08:10:43;;;;;;;1.35;0.77;;;28.50;77.40;;;;;;5021532;28;20401;-56
2022/07/20 08:13:11;;;;;;;1.67;1.35;;;28.50;77.40;;;;;;4961158;28;20047;-57
2022/07/20 08:15:39;;;;;;;0.63;0.55;;;28.60;77.50;;;;;;4973511;28;20046;-55
2022/07/20 08:18:06;;;;;;;4.45;2.15;;;28.60;77.60;;;;;;5031183;28;20067;-56
2022/07/20 08:20:34;;;;;;;1.23;1.23;;;28.50;77.60;;;;;;4955026;28;20534;-52
2022/07/20 08:23:05;;;;;;;1.88;1.05;;;28.60;77.70;;;;;;4963380;28;20317;-53
2022/07/20 08:25:32;;;;;;;0.57;0.57;;;28.60;77.80;;;;;;4998669;28;20063;-52
2022/07/20 08:28:14;;;;;;;3.25;1.58;;;28.60;77.90;;;;;;4982668;28;20054;-57
2022/07/20 08:30:44;;;;;;;1.92;1.27;;;28.60;78.00;;;;;;4955780;28;20051;-57
2022/07/20 08:33:22;;;;;;;4.78;2.45;;;28.60;78.00;;;;;;4966346;28;20530;-58
2022/07/20 08:35:50;;;;;;;3.13;1.92;;;28.60;78.00;;;;;;4985414;28;20058;-53
2022/07/20 08:38:17;;;;;;;1.98;1.25;;;28.60;78.20;;;;;;5006236;28;20062;-60
2022/07/20 08:40:45;;;;;;;0.98;0.98;;;28.60;78.20;;;;;;5024009;28;20055;-51
2022/07/20 08:43:13;;;;;;;4.35;0.77;;;28.60;78.30;;;;;;4957962;28;20059;-56
2022/07/20 08:45:41;;;;;;;1.92;1.33;;;28.70;78.40;;;;;;4960652;28;20118;-52
2022/07/20 08:48:11;;;;;;;1.50;1.15;;;28.70;78.40;;;;;;5020308;28;20051;-57
2022/07/20 08:50:39;;;;;;;0.50;0.50;;;28.70;78.60;;;;;;5048100;28;20052;-59
2022/07/20 08:53:06;;;;;;;0.60;0.60;;;28.70;78.60;;;;;;5000254;28;20067;-52
2022/07/20 08:55:33;;;;;;;1.08;0.90;;;28.70;78.60;;;;;;4976385;28;20389;-55
2022/07/20 08:58:01;;;;;;;1.90;1.38;;;28.70;78.60;;;;;;5007016;28;20384;-55
2022/07/20 09:00:28;;;;;;;1.80;1.25;;;28.70;78.70;;;;;;5004880;28;20048;-54
2022/07/20 09:03:01;;;;;;;2.58;1.45;;;28.70;78.70;;;;;;5006992;28;20044;-55
2022/07/20 09:05:31;;;;;;;0.45;0.45;;;28.70;78.70;;;;;;4978881;28;20897;-59
2022/07/20 09:07:59;;;;;;;1.88;1.52;;;28.70;78.70;;;;;;4962225;28;20467;-57
2022/07/20 09:10:30;;;;;;;2.63;1.38;;;28.70;78.80;;;;;;4989776;28;20055;-60
2022/07/20 09:13:07;;;;;;;15.75;0.85;;;28.70;78.80;;;;;;4982183;28;20452;-57
2022/07/20 09:15:44;;;;;;;0.50;0.50;;;28.70;78.80;;;;;;4961691;28;20498;-55
2022/07/20 09:18:19;;;;;;;1.27;1.05;;;28.70;78.90;;;;;;4980582;28;20058;-53
2022/07/20 09:20:49;;;;;;;1.10;1.08;;;28.70;78.90;;;;;;4959858;28;20050;-56
2022/07/20 09:23:33;;;;;;;1.55;1.00;;;28.70;78.90;;;;;;4966496;28;20418;-56
2022/07/20 09:26:10;;;;;;;1.65;0.98;;;28.70;79.00;;;;;;4965916;28;20050;-57
2022/07/20 09:28:50;;;;;;;1.10;1.00;;;28.70;79.10;;;;;;5008142;28;20046;-55
2022/07/20 09:31:21;;;;;;;5.25;1.85;;;28.70;79.10;;;;;;4979918;28;20046;-57
2022/07/20 09:34:13;;;;;;;0.75;0.75;;;28.70;79.10;;;;;;4981950;28;20053;-55
2022/07/20 09:36:46;;;;;;;3.70;1.05;;;28.70;79.10;;;;;;5026787;28;20057;-57
2022/07/20 09:39:16;;;;;;;3.72;1.88;;;28.70;79.10;;;;;;5032866;28;20050;-58
2022/07/20 09:41:50;;;;;;;2.75;1.63;;;28.70;79.10;;;;;;4961236;28;20051;-55
2022/07/20 09:44:23;;;;;;;2.63;1.77;;;28.80;79.20;;;;;;5014235;28;20052;-53
2022/07/20 09:46:51;;;;;;;2.72;1.27;;;28.80;79.20;;;;;;4956367;28;20066;-54
2022/07/20 09:49:18;;;;;;;;;;;28.80;79.30;;;;;;4959376;28;20043;-56
2022/07/20 09:51:56;;;;;;;2.03;1.15;;;28.80;79.40;;;;;;4970798;28;19926;-57
2022/07/20 09:54:43;;;;;;;3.42;1.02;;;28.70;79.30;;;;;;4958310;28;20062;-53
2022/07/20 09:57:11;;;;;;;2.97;1.75;;;28.80;79.40;;;;;;4971564;28;20058;-59
2022/07/20 09:59:46;;;;;;;2.45;1.48;;;28.80;79.40;;;;;;4981086;28;20045;-55
2022/07/20 10:02:14;;;;;;;0.68;0.68;;;28.80;80.00;;;;;;5018370;28;20491;-56
2022/07/20 10:04:44;;;;;;;2.65;1.42;;;28.80;79.40;;;;;;4980329;28;20073;-51
2022/07/20 10:07:11;;;;;;;1.10;1.10;;;28.80;79.40;;;;;;4972927;28;20053;-58
2022/07/20 10:09:39;;;;;;;;;;;28.80;79.40;;;;;;5005072;28;20406;-57
2022/07/20 10:12:06;;;;;;;1.98;1.15;;;28.80;79.50;;;;;;4979367;28;19929;-56
2022/07/20 10:14:34;;;;;;;;;;;28.80;79.50;;;;;;4992592;28;20051;-57
2022/07/20 10:17:02;;;;;;;4.75;1.67;;;28.80;79.50;;;;;;5047716;28;20315;-57
2022/07/20 10:19:46;;;;;;;2.83;1.95;;;28.80;79.50;;;;;;4994679;28;20056;-55
2022/07/20 10:22:14;;;;;;;1.35;0.75;;;28.80;79.50;;;;;;4999604;28;20056;-58
2022/07/20 10:24:47;;;;;;;0.95;0.90;;;28.80;79.60;;;;;;5030791;28;20442;-58
2022/07/20 10:27:25;;;;;;;0.40;0.40;;;28.80;79.60;;;;;;4983070;28;20533;-59
2022/07/20 10:29:54;;;;;;;1.85;1.27;;;28.80;79.70;;;;;;4964833;28;20057;-54
2022/07/20 10:32:24;;;;;;;1.30;1.10;;;28.80;79.70;;;;;;5029491;28;20446;-57
2022/07/20 10:34:54;;;;;;;2.63;1.33;;;28.80;79.70;;;;;;5003292;28;20064;-57
2022/07/20 10:37:42;;;;;;;6.90;1.48;;;28.80;80.30;;;;;;4964002;28;20085;-56
2022/07/20 10:40:22;;;;;;;1.27;1.10;;;28.80;79.70;;;;;;4964847;28;20051;-52
2022/07/20 10:42:50;;;;;;;0.40;0.40;;;28.80;79.70;;;;;;4960490;28;20407;-59
2022/07/20 10:45:20;;;;;;;2.72;1.77;;;28.80;79.70;;;;;;5017167;28;20047;-55
2022/07/20 10:48:12;;;;;;;0.57;0.57;;;28.80;79.70;;;;;;5013880;28;20051;-57
2022/07/20 10:50:50;;;;;;;1.27;1.17;;;28.80;79.80;;;;;;4952868;28;20058;-54
2022/07/20 10:53:24;;;;;;;2.60;1.23;;;28.80;79.70;;;;;;4988307;28;20057;-56
2022/07/20 10:55:58;;;;;;;3.83;1.75;;;28.80;79.80;;;;;;4980279;28;20554;-52
2022/07/20 10:58:28;;;;;;;0.65;0.65;;;28.80;79.80;;;;;;5005109;28;20048;-51
2022/07/20 11:01:01;;;;;;;0.55;0.55;;;28.80;79.70;;;;;;4992029;28;20068;-56
2022/07/20 11:03:36;;;;;;;1.30;0.70;;;28.90;79.90;;;;;;4964731;28;20051;-58
2022/07/20 11:06:16;;;;;;;3.03;0.82;;;28.80;79.80;;;;;;4975616;28;20039;-55
2022/07/20 11:08:57;;;;;;;1.92;1.60;;;28.90;79.90;;;;;;4959820;28;20039;-57
2022/07/20 11:11:30;;;;;;;1.10;0.93;;;28.80;79.80;;;;;;4992743;28;20062;-57
2022/07/20 11:13:57;;;;;;;2.33;2.13;;;28.90;79.90;;;;;;5033236;28;20503;-56
2022/07/20 11:16:26;;;;;;;2.85;1.75;;;28.80;79.90;;;;;;4979554;28;20061;-57
2022/07/20 11:18:56;;;;;;;1.52;1.20;;;28.80;79.90;;;;;;4962179;28;20058;-56
2022/07/20 11:21:35;;;;;;;0.98;0.98;;;28.80;79.90;;;;;;4962566;28;20046;-55
2022/07/20 11:24:28;;;;;;;0.75;0.73;;;28.80;79.90;;;;;;5025298;28;20066;-59
2022/07/20 11:26:55;;;;;;;0.70;0.70;;;28.80;79.80;;;;;;4978792;28;20042;-59
2022/07/20 11:29:24;;;;;;;;;;;28.90;79.90;;;;;;4959321;28;20071;-58
2022/07/20 11:31:51;;;;;;;2.47;0.85;;;28.80;79.90;;;;;;4964792;28;20393;-55
2022/07/20 11:34:19;;;;;;;3.20;1.50;;;28.90;79.90;;;;;;4965925;28;20419;-56
2022/07/20 11:36:48;;;;;;;4.80;2.70;;;28.80;79.80;;;;;;5002731;28;20051;-56
2022/07/20 11:39:19;;;;;;;1.02;0.77;;;28.90;79.90;;;;;;5035197;28;20039;-58
2022/07/20 11:41:48;;;;;;;;;;;28.80;79.80;;;;;;4956746;28;20051;-58
2022/07/20 11:44:17;;;;;;;2.55;1.38;;;28.90;79.90;;;;;;4972098;28;19922;-52
2022/07/20 11:46:45;;;;;;;1.95;1.00;;;28.80;79.90;;;;;;4991567;28;20543;-57
2022/07/20 11:49:16;;;;;;;1.17;1.17;;;28.90;79.90;;;;;;4989412;28;20057;-57
2022/07/20 11:51:59;;;;;;;1.27;1.08;;;28.90;79.90;;;;;;5007618;28;20041;-55
2022/07/20 11:54:30;;;;;;;0.88;0.85;;;28.80;79.90;;;;;;4960374;28;20055;-60
2022/07/20 11:56:57;;;;;;;1.33;1.20;;;28.90;80.50;;;;;;4964830;28;20055;-53
2022/07/20 11:59:25;;;;;;;1.48;1.30;;;28.90;79.90;;;;;;4957597;28;20047;-54
2022/07/20 12:01:54;;;;;;;0.60;0.60;;;28.90;79.90;;;;;;4977360;28;20495;-56
2022/07/20 12:04:23;;;;;;;1.08;0.82;;;28.90;79.90;;;;;;4990881;28;20055;-58
2022/07/20 12:06:55;;;;;;;1.55;1.27;;;28.90;79.90;;;;;;4976638;28;20078;-59
2022/07/20 12:09:33;;;;;;;1.40;1.30;;;28.90;79.90;;;;;;4966844;28;20058;-54
2022/07/20 12:12:00;;;;;;;;;;;28.90;79.90;;;;;;4989356;28;20441;-53
2022/07/20 12:14:42;;;;;;;0.65;0.60;;;28.90;79.90;;;;;;5010134;28;19925;-58
2022/07/20 12:17:26;;;;;;;1.42;1.23;;;28.90;79.90;;;;;;4970583;28;20058;-56
2022/07/20 12:19:57;;;;;;;1.55;0.95;;;29.00;80.00;;;;;;4993606;28;20049;-56
2022/07/20 12:22:28;;;;;;;1.40;0.63;;;28.90;79.90;;;;;;4969568;28;20448;-53
2022/07/20 12:25:00;;;;;;;2.80;1.25;;;29.00;79.90;;;;;;4998139;28;20054;-55
2022/07/20 12:27:29;;;;;;;2.88;1.27;;;28.90;79.90;;;;;;4974637;28;20868;-51
2022/07/20 12:29:58;;;;;;;2.17;1.17;;;29.00;79.90;;;;;;4953018;28;20066;-56
2022/07/20 12:32:30;;;;;;;2.33;1.42;;;29.00;79.90;;;;;;5011174;28;20055;-58
2022/07/20 12:34:58;;;;;;;0.57;0.57;;;29.00;79.90;;;;;;4980784;28;20050;-54
2022/07/20 12:37:46;;;;;;;0.40;0.40;;;29.00;79.90;;;;;;4999335;28;20065;-53
2022/07/20 12:40:30;;;;;;;0.43;0.43;;;29.00;79.90;;;;;;5007637;28;20514;-56
2022/07/20 12:42:57;;;;;;;2.20;1.45;;;29.00;79.90;;;;;;5007108;28;20369;-56
2022/07/20 12:45:25;;;;;;;3.78;1.52;;;29.00;79.90;;;;;;4965268;28;20510;-57
2022/07/20 12:47:52;;;;;;;0.38;0.38;;;29.00;79.80;;;;;;4966145;28;20053;-52
2022/07/20 12:50:38;;;;;;;1.15;1.13;;;29.00;79.80;;;;;;4981330;28;20048;-55
2022/07/20 12:53:05;;;;;;;5.05;2.20;;;29.10;79.90;;;;;;4999269;28;20079;-56
2022/07/20 12:55:32;;;;;;;0.32;0.32;;;29.10;79.90;;;;;;4959709;28;20043;-55
2022/07/20 12:58:00;;;;;;;1.95;1.20;;;29.10;79.90;;;;;;5007572;28;20419;-55
2022/07/20 13:00:27;;;;;;;1.13;0.98;;;29.10;79.90;;;;;;4972996;28;20047;-58
2022/07/20 13:02:54;;;;;;;2.80;1.25;;;29.20;79.90;;;;;;4996948;28;20044;-56
2022/07/20 13:05:22;;;;;;;;;;;29.20;79.90;;;;;;4998337;28;20149;-57
2022/07/20 13:07:49;;;;;;;;;;;29.20;79.80;;;;;;4997946;28;19926;-54
2022/07/20 13:10:16;;;;;;;0.65;0.65;;;29.20;79.80;;;;;;5013398;28;19931;-52
2022/07/20 13:12:43;;;;;;;0.98;0.95;;;29.20;79.80;;;;;;4988273;28;20048;-55
2022/07/20 13:15:11;;;;;;;0.68;0.68;;;29.20;79.80;;;;;;4995036;28;20055;-53
2022/07/20 13:17:58;;;;;;;1.33;1.25;;;29.20;79.70;;;;;;5014568;28;20090;-52
2022/07/20 13:20:26;;;;;;;0.98;0.65;;;29.30;79.80;;;;;;4974341;28;20058;-53
2022/07/20 13:22:53;;;;;;;0.98;0.70;;;29.30;79.80;;;;;;4999761;28;20039;-55
2022/07/20 13:25:24;;;;;;;1.58;0.90;;;29.40;79.80;;;;;;4995564;28;20042;-55
2022/07/20 13:27:52;;;;;;;2.78;0.90;;;29.30;79.70;;;;;;4964384;28;20053;-58